createdAt,value
2018-06-04T00:00:04.766Z,17.20
2018-06-04T00:02:33.411Z,17.10
2018-06-04T00:05:02.081Z,17.10
2018-06-04T00:07:30.694Z,17.00
2018-06-04T00:09:59.362Z,17.00
2018-06-04T00:12:27.933Z,17.00
2018-06-04T00:14:56.518Z,17.00
2018-06-04T00:17:25.122Z,16.90
2018-06-04T00:19:53.676Z,17.00
2018-06-04T00:22:22.207Z,17.00
2018-06-04T00:24:50.804Z,17.00
2018-06-04T00:27:19.365Z,17.00
2018-06-04T00:29:47.935Z,17.00
2018-06-04T00:32:16.507Z,16.90
2018-06-04T00:34:45.134Z,16.90
2018-06-04T00:37:13.645Z,16.90
2018-06-04T00:39:42.235Z,16.90
2018-06-04T00:42:10.817Z,17.00
2018-06-04T00:44:39.519Z,17.00
2018-06-04T00:47:08.074Z,16.90
2018-06-04T00:49:36.606Z,16.90
2018-06-04T00:52:05.262Z,16.90
2018-06-04T00:54:33.831Z,16.90
2018-06-04T00:57:02.464Z,16.90
2018-06-04T00:59:31.125Z,16.90
2018-06-04T01:01:59.758Z,16.90
2018-06-04T01:04:28.329Z,16.80
2018-06-04T01:06:56.914Z,16.80
2018-06-04T01:09:25.597Z,16.70
2018-06-04T01:11:54.205Z,16.60
2018-06-04T01:14:22.826Z,16.40
2018-06-04T01:16:51.426Z,16.30
2018-06-04T01:19:20.033Z,16.20
2018-06-04T01:21:48.562Z,16.20
2018-06-04T01:24:17.162Z,16.20
2018-06-04T01:26:45.753Z,16.20
2018-06-04T01:29:14.304Z,16.20
2018-06-04T01:31:42.870Z,16.20
2018-06-04T01:34:11.511Z,16.20
2018-06-04T01:36:40.023Z,16.10
2018-06-04T01:39:08.644Z,16.10
2018-06-04T01:41:37.251Z,16.10
2018-06-04T01:44:05.926Z,16.10
2018-06-04T01:46:34.470Z,16.00
2018-06-04T01:49:03.061Z,16.10
2018-06-04T01:51:31.642Z,16.10
2018-06-04T01:54:00.223Z,16.10
2018-06-04T01:56:28.792Z,16.10
2018-06-04T01:58:57.407Z,16.10
2018-06-04T02:01:26.042Z,16.10
2018-06-04T02:03:54.587Z,16.20
2018-06-04T02:06:23.222Z,16.10
2018-06-04T02:08:51.827Z,16.10
2018-06-04T02:11:20.545Z,16.00
2018-06-04T02:13:49.218Z,16.00
2018-06-04T02:16:17.829Z,16.00
2018-06-04T02:18:46.325Z,15.90
2018-06-04T02:21:14.876Z,16.00
2018-06-04T02:23:43.469Z,15.90
2018-06-04T02:26:12.086Z,15.80
2018-06-04T02:28:40.706Z,15.80
2018-06-04T02:31:09.344Z,15.80
2018-06-04T02:33:37.915Z,15.80
2018-06-04T02:36:06.479Z,15.70
2018-06-04T02:38:35.054Z,15.80
2018-06-04T02:41:03.643Z,15.70
2018-06-04T02:43:32.330Z,15.70
2018-06-04T02:46:00.901Z,15.80
2018-06-04T02:48:29.502Z,15.80
2018-06-04T02:50:58.199Z,15.80
2018-06-04T02:53:26.936Z,15.70
2018-06-04T02:55:55.552Z,15.70
2018-06-04T02:58:24.176Z,15.60
2018-06-04T03:00:52.880Z,15.60
2018-06-04T03:03:21.479Z,15.50
2018-06-04T03:05:50.059Z,15.50
2018-06-04T03:08:18.749Z,15.50
2018-06-04T03:10:47.326Z,15.40
2018-06-04T03:15:44.681Z,15.40
2018-06-04T03:18:13.322Z,15.30
2018-06-04T03:20:44.959Z,15.30
2018-06-04T03:23:13.715Z,15.20
2018-06-04T03:28:10.627Z,15.10
2018-06-04T03:30:45.646Z,15.10
2018-06-04T03:33:14.179Z,15.10
2018-06-04T03:35:42.791Z,15.10
2018-06-04T03:38:11.372Z,15.10
2018-06-04T03:40:39.975Z,15.00
2018-06-04T03:43:08.510Z,15.00
2018-06-04T03:45:37.053Z,15.00
2018-06-04T03:48:05.637Z,15.00
2018-06-04T03:50:34.242Z,15.10
2018-06-04T03:53:02.831Z,15.00
2018-06-04T03:55:31.509Z,15.00
2018-06-04T03:58:00.033Z,15.00
2018-06-04T04:00:28.855Z,15.10
2018-06-04T04:02:57.533Z,15.20
2018-06-04T04:05:26.066Z,15.30
2018-06-04T04:07:54.685Z,15.40
2018-06-04T04:10:23.335Z,15.50
2018-06-04T04:12:51.943Z,15.50
2018-06-04T04:15:20.584Z,15.50
2018-06-04T04:17:49.208Z,15.50
2018-06-04T04:22:46.098Z,15.60
2018-06-04T04:25:14.674Z,15.60
2018-06-04T04:27:43.236Z,15.60
2018-06-04T04:30:11.832Z,15.70
2018-06-04T04:32:40.418Z,15.80
2018-06-04T04:35:08.994Z,15.80
2018-06-04T04:37:37.519Z,15.80
2018-06-04T04:40:06.133Z,15.80
2018-06-04T04:42:34.756Z,15.80
2018-06-04T04:45:03.456Z,15.90
2018-06-04T04:47:32.054Z,16.00
2018-06-04T04:50:00.659Z,16.10
2018-06-04T04:52:29.235Z,16.20
2018-06-04T04:54:57.870Z,16.30
2018-06-04T04:57:26.499Z,16.30
2018-06-04T04:59:55.065Z,16.40
2018-06-04T05:02:23.665Z,16.50
2018-06-04T05:04:52.287Z,16.50
2018-06-04T05:07:20.815Z,16.60
2018-06-04T05:09:56.070Z,16.60
2018-06-04T05:12:24.737Z,16.70
2018-06-04T05:14:53.221Z,16.70
2018-06-04T05:17:21.812Z,16.80
2018-06-04T05:19:50.399Z,16.90
2018-06-04T05:22:18.998Z,17.10
2018-06-04T05:24:47.542Z,17.20
2018-06-04T05:27:16.225Z,17.30
2018-06-04T05:29:44.835Z,17.40
2018-06-04T05:32:13.491Z,17.60
2018-06-04T05:34:42.103Z,17.70
2018-06-04T05:37:10.783Z,17.80
2018-06-04T05:39:39.366Z,17.90
2018-06-04T05:42:08.019Z,18.00
2018-06-04T05:44:36.650Z,18.10
2018-06-04T05:47:05.360Z,18.30
2018-06-04T05:49:34.000Z,18.40
2018-06-04T05:52:02.584Z,18.50
2018-06-04T05:54:31.243Z,18.60
2018-06-04T05:56:59.899Z,18.70
2018-06-04T05:59:28.471Z,18.80
2018-06-04T06:01:57.235Z,18.80
2018-06-04T06:04:25.893Z,18.90
2018-06-04T06:06:54.541Z,19.00
2018-06-04T06:09:23.144Z,19.10
2018-06-04T06:11:51.778Z,19.30
2018-06-04T06:14:20.454Z,19.30
2018-06-04T06:16:49.078Z,19.50
2018-06-04T06:19:17.648Z,19.60
2018-06-04T06:21:46.291Z,19.70
2018-06-04T06:24:14.961Z,19.70
2018-06-04T06:26:43.520Z,19.80
2018-06-04T06:29:12.102Z,19.90
2018-06-04T06:31:41.032Z,20.00
2018-06-04T06:34:10.079Z,20.10
2018-06-04T06:36:39.053Z,20.20
2018-06-04T06:39:09.130Z,20.40
2018-06-04T06:44:06.226Z,20.60
2018-06-04T06:46:34.821Z,20.80
2018-06-04T06:49:03.485Z,20.80
2018-06-04T06:51:32.126Z,20.90
2018-06-04T06:54:00.813Z,21.10
2018-06-04T06:56:29.371Z,21.20
2018-06-04T06:58:58.089Z,21.30
2018-06-04T07:01:26.671Z,21.40
2018-06-04T07:03:55.340Z,21.50
2018-06-04T07:06:23.966Z,21.60
2018-06-04T07:08:52.519Z,21.70
2018-06-04T07:11:21.146Z,21.90
2018-06-04T07:13:49.926Z,22.10
2018-06-04T07:16:18.535Z,22.20
2018-06-04T07:18:47.141Z,22.30
2018-06-04T07:21:15.865Z,22.50
2018-06-04T07:23:44.493Z,22.60
2018-06-04T07:26:13.044Z,22.80
2018-06-04T07:28:41.600Z,22.90
2018-06-04T07:31:10.142Z,23.00
2018-06-04T07:33:38.791Z,23.30
2018-06-04T07:36:13.190Z,23.30
2018-06-04T07:38:41.813Z,23.50
2018-06-04T07:41:10.494Z,23.70
2018-06-04T07:43:39.131Z,23.90
2018-06-04T07:46:07.681Z,24.00
2018-06-04T07:48:36.284Z,24.00
2018-06-04T07:51:04.934Z,24.10
2018-06-04T07:53:33.545Z,24.20
2018-06-04T07:56:02.105Z,24.40
2018-06-04T07:58:30.738Z,24.60
2018-06-04T08:00:59.615Z,24.80
2018-06-04T08:03:28.233Z,24.90
2018-06-04T08:05:56.802Z,25.00
2018-06-04T08:08:25.430Z,25.20
2018-06-04T08:10:54.021Z,25.40
2018-06-04T08:13:22.702Z,25.40
2018-06-04T08:15:51.326Z,25.50
2018-06-04T08:18:19.966Z,25.60
2018-06-04T08:20:48.638Z,25.80
2018-06-04T08:23:17.202Z,25.80
2018-06-04T08:25:45.755Z,25.90
2018-06-04T08:28:14.374Z,26.00
2018-06-04T08:30:42.966Z,26.00
2018-06-04T08:33:11.506Z,26.20
2018-06-04T08:35:40.187Z,26.50
2018-06-04T08:38:08.756Z,26.70
2018-06-04T08:40:37.375Z,26.90
2018-06-04T08:43:05.955Z,26.90
2018-06-04T08:45:34.614Z,26.90
2018-06-04T08:48:03.196Z,26.90
2018-06-04T08:50:31.867Z,27.10
2018-06-04T08:53:00.624Z,27.30
2018-06-04T08:55:29.251Z,27.40
2018-06-04T08:57:57.955Z,27.50
2018-06-04T09:00:26.691Z,27.70
2018-06-04T09:05:23.645Z,27.70
2018-06-04T09:07:52.226Z,27.80
2018-06-04T09:10:20.823Z,28.00
2018-06-04T09:12:49.397Z,28.40
2018-06-04T09:15:17.985Z,28.70
2018-06-04T09:20:14.912Z,29.10
2018-06-04T09:22:43.593Z,29.50
2018-06-04T09:25:12.251Z,29.70
2018-06-04T09:27:40.998Z,29.90
2018-06-04T09:32:37.936Z,30.40
2018-06-04T09:35:06.588Z,30.60
2018-06-04T09:37:35.294Z,30.90
2018-06-04T09:40:04.023Z,31.10
2018-06-04T09:45:00.884Z,31.40
2018-06-04T09:47:29.571Z,31.60
2018-06-04T09:49:58.218Z,31.80
2018-06-04T09:52:26.762Z,32.10
2018-06-04T09:54:55.370Z,32.30
2018-06-04T09:57:24.013Z,32.40
2018-06-04T09:59:52.595Z,32.10
2018-06-04T10:02:21.202Z,31.90
2018-06-04T10:04:49.891Z,31.50
2018-06-04T10:07:18.583Z,31.40
2018-06-04T10:09:48.039Z,31.00
2018-06-04T10:12:16.611Z,30.80
2018-06-04T10:14:45.160Z,31.00
2018-06-04T10:17:13.747Z,31.10
2018-06-04T10:19:42.319Z,31.50
2018-06-04T10:22:10.842Z,31.70
2018-06-04T10:24:39.519Z,31.90
2018-06-04T10:27:08.196Z,32.30
2018-06-04T10:29:36.787Z,32.40
2018-06-04T10:32:05.364Z,32.60
2018-06-04T10:34:33.922Z,32.70
2018-06-04T10:37:02.623Z,32.80
2018-06-04T10:39:31.303Z,33.10
2018-06-04T10:41:59.833Z,33.30
2018-06-04T10:44:28.419Z,33.10
2018-06-04T10:49:25.207Z,33.00
2018-06-04T10:51:53.759Z,33.00
2018-06-04T10:54:22.334Z,33.00
2018-06-04T10:56:50.967Z,33.10
2018-06-04T10:59:19.508Z,33.10
2018-06-04T11:04:16.296Z,32.80
2018-06-04T11:06:45.044Z,33.00
2018-06-04T11:09:13.698Z,33.00
2018-06-04T11:11:42.241Z,33.10
2018-06-04T11:14:10.899Z,33.00
2018-06-04T11:16:39.540Z,32.90
2018-06-04T11:19:08.324Z,33.10
2018-06-04T11:21:36.881Z,32.90
2018-06-04T11:24:05.486Z,32.80
2018-06-04T11:26:34.106Z,32.90
2018-06-04T11:29:02.707Z,33.00
2018-06-04T11:31:31.378Z,32.70
2018-06-04T11:33:59.937Z,32.50
2018-06-04T11:36:28.576Z,32.40
2018-06-04T11:38:57.180Z,32.50
2018-06-04T11:41:25.759Z,32.60
2018-06-04T11:43:54.395Z,32.50
2018-06-04T11:46:23.028Z,32.20
2018-06-04T11:48:51.590Z,31.70
2018-06-04T11:53:48.415Z,31.50
2018-06-04T11:56:17.062Z,31.40
2018-06-04T11:58:45.695Z,31.30
2018-06-04T12:01:14.436Z,31.40
2018-06-04T12:03:42.959Z,31.60
2018-06-04T12:06:11.801Z,31.80
2018-06-04T12:08:40.710Z,32.00
2018-06-04T12:11:09.371Z,32.10
2018-06-04T12:13:37.973Z,32.40
2018-06-04T12:16:06.583Z,32.70
2018-06-04T12:18:35.277Z,33.00
2018-06-04T12:21:03.848Z,33.00
2018-06-04T12:23:32.524Z,33.00
2018-06-04T12:26:01.094Z,32.90
2018-06-04T12:28:29.695Z,33.00
2018-06-04T12:30:58.366Z,33.00
2018-06-04T12:33:27.129Z,33.20
2018-06-04T12:35:55.716Z,33.30
2018-06-04T12:38:24.266Z,33.60
2018-06-04T12:40:52.871Z,33.90
2018-06-04T12:43:21.419Z,34.00
2018-06-04T12:45:50.014Z,34.20
2018-06-04T12:50:58.614Z,34.30
2018-06-04T12:53:27.186Z,34.20
2018-06-04T12:55:55.870Z,34.00
2018-06-04T12:58:24.477Z,33.50
2018-06-04T13:00:52.990Z,33.10
2018-06-04T13:03:21.594Z,33.00
2018-06-04T13:05:50.119Z,33.10
2018-06-04T13:08:18.737Z,33.10
2018-06-04T13:10:47.319Z,33.40
2018-06-04T13:13:15.950Z,33.70
2018-06-04T13:15:45.134Z,33.90
2018-06-04T13:18:13.843Z,34.20
2018-06-04T13:20:42.460Z,34.40
2018-06-04T13:23:11.185Z,34.50
2018-06-04T13:25:39.696Z,34.20
2018-06-04T13:28:08.387Z,34.20
2018-06-04T13:30:36.989Z,34.20
2018-06-04T13:33:05.776Z,34.20
2018-06-04T13:35:34.363Z,34.20
2018-06-04T13:38:02.964Z,34.20
2018-06-04T13:40:31.546Z,34.40
2018-06-04T13:43:00.187Z,34.40
2018-06-04T13:45:28.890Z,34.50
2018-06-04T13:47:57.617Z,34.30
2018-06-04T13:50:26.201Z,34.10
2018-06-04T13:52:54.852Z,34.20
2018-06-04T13:55:23.414Z,34.20
2018-06-04T13:57:51.988Z,34.00
2018-06-04T14:00:20.573Z,33.60
2018-06-04T14:02:49.120Z,33.70
2018-06-04T14:05:17.822Z,33.60
2018-06-04T14:07:46.451Z,33.40
2018-06-04T14:10:15.039Z,33.30
2018-06-04T14:12:43.669Z,33.50
2018-06-04T14:17:40.538Z,33.40
2018-06-04T14:20:09.288Z,33.30
2018-06-04T14:22:37.962Z,33.40
2018-06-04T14:25:06.581Z,33.50
2018-06-04T14:27:35.198Z,33.60
2018-06-04T14:30:04.068Z,33.30
2018-06-04T14:32:32.638Z,33.10
2018-06-04T14:35:01.264Z,32.90
2018-06-04T14:37:29.995Z,32.80
2018-06-04T14:39:58.518Z,32.90
2018-06-04T14:42:27.110Z,32.90
2018-06-04T14:44:55.849Z,32.80
2018-06-04T14:47:24.542Z,33.10
2018-06-04T14:49:53.141Z,32.90
2018-06-04T14:52:22.134Z,32.60
2018-06-04T14:54:50.888Z,32.50
2018-06-04T14:57:19.453Z,32.40
2018-06-04T14:59:48.136Z,32.20
2018-06-04T15:02:16.737Z,32.30
2018-06-04T15:04:45.420Z,32.60
2018-06-04T15:07:14.014Z,32.80
2018-06-04T15:09:42.612Z,33.00
2018-06-04T15:12:11.193Z,33.10
2018-06-04T15:14:39.754Z,33.00
2018-06-04T15:17:08.367Z,33.00
2018-06-04T15:19:36.984Z,33.10
2018-06-04T15:22:05.604Z,33.30
2018-06-04T15:24:34.219Z,33.40
2018-06-04T15:27:02.813Z,33.30
2018-06-04T15:29:31.359Z,33.20
2018-06-04T15:31:59.950Z,33.10
2018-06-04T15:34:28.599Z,33.20
2018-06-04T15:36:57.226Z,33.30
2018-06-04T15:39:25.890Z,33.00
2018-06-04T15:41:54.531Z,33.10
2018-06-04T15:44:23.131Z,33.40
2018-06-04T15:46:51.699Z,33.30
2018-06-04T15:49:20.382Z,33.30
2018-06-04T15:51:48.969Z,32.90
2018-06-04T15:54:17.646Z,32.70
2018-06-04T15:56:46.200Z,32.50
2018-06-04T15:59:14.872Z,32.50
2018-06-04T16:01:43.547Z,32.60
2018-06-04T16:04:12.222Z,32.80
2018-06-04T16:06:40.866Z,33.00
2018-06-04T16:11:37.838Z,32.50
2018-06-04T16:14:06.389Z,32.10
2018-06-04T16:16:34.974Z,31.90
2018-06-04T16:19:03.619Z,31.80
2018-06-04T16:21:32.340Z,32.20
2018-06-04T16:24:01.043Z,32.50
2018-06-04T16:26:29.715Z,33.40
2018-06-04T16:28:58.380Z,34.80
2018-06-04T16:31:27.223Z,36.00
2018-06-04T16:33:56.982Z,36.80
2018-06-04T16:36:26.596Z,37.40
2018-06-04T16:38:55.183Z,37.90
2018-06-04T16:41:23.864Z,37.90
2018-06-04T16:43:52.575Z,37.50
2018-06-04T16:46:21.199Z,37.00
2018-06-04T16:48:49.842Z,36.10
2018-06-04T16:51:18.479Z,35.90
2018-06-04T16:53:47.077Z,36.00
2018-06-04T16:56:15.720Z,36.00
2018-06-04T16:58:44.299Z,36.30
2018-06-04T17:01:12.934Z,36.60
2018-06-04T17:03:41.657Z,36.60
2018-06-04T17:06:12.243Z,36.40
2018-06-04T17:08:41.051Z,37.10
2018-06-04T17:11:09.725Z,36.90
2018-06-04T17:13:38.403Z,37.30
2018-06-04T17:16:07.072Z,37.90
2018-06-04T17:18:35.750Z,38.40
2018-06-04T17:21:04.354Z,38.60
2018-06-04T17:23:33.019Z,38.40
2018-06-04T17:26:01.609Z,38.20
2018-06-04T17:28:30.201Z,38.50
2018-06-04T17:30:58.780Z,38.80
2018-06-04T17:33:27.369Z,38.90
2018-06-04T17:35:55.916Z,39.10
2018-06-04T17:38:24.552Z,38.70
2018-06-04T17:40:53.522Z,38.30
2018-06-04T17:43:22.218Z,37.80
2018-06-04T17:45:50.767Z,37.20
2018-06-04T17:48:19.332Z,36.80
2018-06-04T17:50:47.962Z,36.60
2018-06-04T17:53:16.682Z,36.70
2018-06-04T17:55:45.346Z,36.40
2018-06-04T17:58:13.904Z,36.30
2018-06-04T18:00:42.613Z,36.30
2018-06-04T18:03:11.258Z,35.60
2018-06-04T18:08:08.145Z,35.50
2018-06-04T18:10:36.762Z,35.20
2018-06-04T18:13:05.454Z,34.90
2018-06-04T18:15:34.032Z,34.90
2018-06-04T18:18:02.754Z,34.40
2018-06-04T18:20:31.369Z,33.80
2018-06-04T18:22:59.994Z,33.40
2018-06-04T18:25:28.739Z,32.90
2018-06-04T18:27:57.317Z,32.20
2018-06-04T18:30:25.883Z,31.60
2018-06-04T18:35:22.778Z,30.70
2018-06-04T18:37:51.435Z,30.30
2018-06-04T18:40:20.017Z,29.90
2018-06-04T18:45:16.998Z,29.00
2018-06-04T18:47:45.604Z,28.60
2018-06-04T18:50:14.195Z,28.20
2018-06-04T18:52:42.875Z,27.90
2018-06-04T18:55:11.443Z,27.80
2018-06-04T18:57:40.132Z,27.50
2018-06-04T19:00:08.758Z,27.30
2018-06-04T19:02:37.410Z,27.20
2018-06-04T19:05:06.025Z,27.00
2018-06-04T19:07:34.686Z,26.80
2018-06-04T19:10:03.314Z,26.50
2018-06-04T19:12:31.911Z,26.30
2018-06-04T19:17:28.881Z,25.90
2018-06-04T19:22:25.752Z,25.40
2018-06-04T19:24:54.339Z,25.20
2018-06-04T19:27:23.019Z,25.00
2018-06-04T19:29:51.641Z,24.90
2018-06-04T19:32:20.174Z,24.70
2018-06-04T19:34:48.724Z,24.60
2018-06-04T19:37:17.374Z,24.50
2018-06-04T19:39:46.144Z,24.40
2018-06-04T19:42:15.026Z,24.30
2018-06-04T19:44:43.720Z,24.20
2018-06-04T19:47:12.348Z,24.20
2018-06-04T19:49:40.994Z,24.10
2018-06-04T19:52:09.629Z,24.00
2018-06-04T19:54:38.304Z,24.00
2018-06-04T19:57:06.892Z,24.00
2018-06-04T19:59:35.577Z,24.00
2018-06-04T20:02:04.193Z,24.00
2018-06-04T20:04:32.867Z,24.00
2018-06-04T20:07:01.456Z,24.00
2018-06-04T20:09:30.042Z,23.90
2018-06-04T20:11:58.665Z,23.90
2018-06-04T20:14:27.319Z,23.90
2018-06-04T20:19:24.191Z,23.90
2018-06-04T20:21:52.781Z,23.90
2018-06-04T20:24:21.311Z,23.90
2018-06-04T20:26:49.925Z,23.90
2018-06-04T20:29:18.502Z,23.80
2018-06-04T20:31:47.126Z,23.80
2018-06-04T20:34:15.834Z,23.70
2018-06-04T20:36:44.472Z,23.60
2018-06-04T20:39:13.090Z,23.50
2018-06-04T20:41:41.971Z,23.40
2018-06-04T20:44:10.971Z,23.40
2018-06-04T20:46:39.864Z,23.20
2018-06-04T20:49:08.951Z,23.10
2018-06-04T20:51:37.816Z,23.00
2018-06-04T20:54:06.751Z,22.90
2018-06-04T20:56:35.724Z,22.90
2018-06-04T20:59:04.743Z,22.70
2018-06-04T21:01:33.673Z,22.60
2018-06-04T21:04:02.280Z,22.60
2018-06-04T21:06:30.926Z,22.60
2018-06-04T21:08:59.583Z,22.50
2018-06-04T21:11:28.578Z,22.50
2018-06-04T21:13:57.258Z,22.50
2018-06-04T21:16:25.847Z,22.40
2018-06-04T21:18:54.576Z,22.40
2018-06-04T21:21:23.147Z,22.40
2018-06-04T21:23:51.762Z,22.40
2018-06-04T21:26:20.368Z,22.40
2018-06-04T21:28:48.893Z,22.30
2018-06-04T21:31:17.516Z,22.20
2018-06-04T21:33:46.217Z,22.20
2018-06-04T21:36:14.783Z,22.10
2018-06-04T21:38:43.400Z,21.80
2018-06-04T21:41:12.077Z,21.70
2018-06-04T21:43:40.688Z,21.60
2018-06-04T21:46:09.355Z,21.60
2018-06-04T21:48:38.028Z,21.60
2018-06-04T21:51:06.697Z,21.50
2018-06-04T21:53:35.355Z,21.50
2018-06-04T21:56:04.082Z,21.40
2018-06-04T21:58:32.669Z,21.40
2018-06-04T22:01:01.224Z,21.40
2018-06-04T22:03:29.846Z,21.20
2018-06-04T22:05:58.386Z,21.10
2018-06-04T22:10:55.321Z,21.00
2018-06-04T22:13:23.918Z,21.00
2018-06-04T22:15:52.444Z,20.90
2018-06-04T22:18:21.174Z,20.70
2018-06-04T22:20:49.693Z,20.60
2018-06-04T22:23:18.331Z,20.60
2018-06-04T22:25:46.881Z,20.50
2018-06-04T22:28:15.470Z,20.50
2018-06-04T22:30:44.131Z,20.50
2018-06-04T22:33:12.748Z,20.50
2018-06-04T22:35:41.344Z,20.50
2018-06-04T22:38:09.938Z,20.50
2018-06-04T22:40:38.616Z,20.40
2018-06-04T22:43:07.222Z,20.40
2018-06-04T22:45:35.837Z,20.40
2018-06-04T22:48:04.450Z,20.40
2018-06-04T22:50:33.020Z,20.30
2018-06-04T22:53:01.525Z,20.30
2018-06-04T22:55:30.190Z,20.30
2018-06-04T22:57:58.847Z,20.10
2018-06-04T23:02:57.863Z,20.10
2018-06-04T23:05:26.690Z,20.10
2018-06-04T23:07:55.362Z,19.90
2018-06-04T23:10:23.933Z,19.80
2018-06-04T23:12:52.515Z,19.70
2018-06-04T23:15:21.005Z,19.70
2018-06-04T23:17:49.626Z,19.60
2018-06-04T23:20:18.308Z,19.60
2018-06-04T23:22:46.939Z,19.50
2018-06-04T23:25:15.578Z,19.40
2018-06-04T23:27:44.123Z,19.30
2018-06-04T23:30:12.731Z,19.20
2018-06-04T23:32:41.423Z,19.10
2018-06-04T23:35:10.060Z,18.90
2018-06-04T23:37:38.699Z,18.80
2018-06-04T23:40:07.358Z,18.90
2018-06-04T23:42:35.942Z,18.80
2018-06-04T23:45:04.565Z,18.80
2018-06-04T23:47:33.185Z,18.80
2018-06-04T23:52:29.999Z,18.70
2018-06-04T23:54:58.535Z,18.70
2018-06-04T23:57:27.097Z,18.60
2018-06-04T23:59:55.658Z,18.60
